sensor_id;sensor_type;location;lat;lon;timestamp;P1;durP1;ratioP1;P2;durP2;ratioP2
84687;SDS011;74908;42.040;21.322;2023-12-22T00:02:19;42.67;;;22.67;;
84687;SDS011;74908;42.040;21.322;2023-12-22T00:04:45;47.22;;;26.20;;
84687;SDS011;74908;42.040;21.322;2023-12-22T00:07:14;51.25;;;28.27;;
84687;SDS011;74908;42.040;21.322;2023-12-22T00:09:41;36.70;;;21.70;;
84687;SDS011;74908;42.040;21.322;2023-12-22T00:12:10;44.05;;;20.60;;
84687;SDS011;74908;42.040;21.322;2023-12-22T00:14:40;45.13;;;22.23;;
84687;SDS011;74908;42.040;21.322;2023-12-22T00:17:07;51.00;;;22.85;;
84687;SDS011;74908;42.040;21.322;2023-12-22T00:19:38;43.17;;;21.45;;
84687;SDS011;74908;42.040;21.322;2023-12-22T00:22:09;49.40;;;24.73;;
84687;SDS011;74908;42.040;21.322;2023-12-22T00:24:36;48.08;;;24.85;;
84687;SDS011;74908;42.040;21.322;2023-12-22T00:27:03;58.60;;;26.92;;
84687;SDS011;74908;42.040;21.322;2023-12-22T00:29:29;40.85;;;21.90;;
84687;SDS011;74908;42.040;21.322;2023-12-22T00:31:55;52.75;;;25.75;;
84687;SDS011;74908;42.040;21.322;2023-12-22T00:34:21;42.30;;;22.88;;
84687;SDS011;74908;42.040;21.322;2023-12-22T00:36:48;50.97;;;25.65;;
84687;SDS011;74908;42.040;21.322;2023-12-22T00:39:14;44.00;;;21.40;;
84687;SDS011;74908;42.040;21.322;2023-12-22T00:41:41;47.10;;;25.13;;
84687;SDS011;74908;42.040;21.322;2023-12-22T00:44:11;48.20;;;24.95;;
84687;SDS011;74908;42.040;21.322;2023-12-22T00:46:38;54.17;;;24.80;;
84687;SDS011;74908;42.040;21.322;2023-12-22T00:49:04;45.25;;;23.52;;
84687;SDS011;74908;42.040;21.322;2023-12-22T00:51:36;49.25;;;23.95;;
84687;SDS011;74908;42.040;21.322;2023-12-22T00:54:03;53.75;;;26.90;;
84687;SDS011;74908;42.040;21.322;2023-12-22T00:56:29;50.22;;;26.42;;
84687;SDS011;74908;42.040;21.322;2023-12-22T00:58:56;51.17;;;24.52;;
84687;SDS011;74908;42.040;21.322;2023-12-22T01:01:22;49.50;;;26.25;;
84687;SDS011;74908;42.040;21.322;2023-12-22T01:03:49;52.63;;;27.13;;
84687;SDS011;74908;42.040;21.322;2023-12-22T01:06:15;55.53;;;25.83;;
84687;SDS011;74908;42.040;21.322;2023-12-22T01:08:41;50.58;;;24.55;;
84687;SDS011;74908;42.040;21.322;2023-12-22T01:11:15;51.42;;;26.10;;
84687;SDS011;74908;42.040;21.322;2023-12-22T01:13:41;45.42;;;25.25;;
84687;SDS011;74908;42.040;21.322;2023-12-22T01:16:07;51.05;;;25.83;;
84687;SDS011;74908;42.040;21.322;2023-12-22T01:18:33;56.47;;;25.70;;
84687;SDS011;74908;42.040;21.322;2023-12-22T01:21:00;45.65;;;22.83;;
84687;SDS011;74908;42.040;21.322;2023-12-22T01:23:29;47.55;;;25.35;;
84687;SDS011;74908;42.040;21.322;2023-12-22T01:26:00;49.47;;;25.50;;
84687;SDS011;74908;42.040;21.322;2023-12-22T01:28:26;47.17;;;23.98;;
84687;SDS011;74908;42.040;21.322;2023-12-22T01:30:53;48.28;;;24.98;;
84687;SDS011;74908;42.040;21.322;2023-12-22T01:33:19;52.00;;;25.95;;
84687;SDS011;74908;42.040;21.322;2023-12-22T01:35:45;52.83;;;26.98;;
84687;SDS011;74908;42.040;21.322;2023-12-22T01:38:12;44.70;;;24.60;;
84687;SDS011;74908;42.040;21.322;2023-12-22T01:40:38;53.33;;;25.98;;
84687;SDS011;74908;42.040;21.322;2023-12-22T01:43:05;47.05;;;23.23;;
84687;SDS011;74908;42.040;21.322;2023-12-22T01:45:31;45.05;;;22.80;;
84687;SDS011;74908;42.040;21.322;2023-12-22T01:47:57;43.45;;;23.00;;
84687;SDS011;74908;42.040;21.322;2023-12-22T01:50:27;44.88;;;24.90;;
84687;SDS011;74908;42.040;21.322;2023-12-22T01:52:53;49.00;;;24.15;;
84687;SDS011;74908;42.040;21.322;2023-12-22T01:55:20;42.03;;;22.55;;
84687;SDS011;74908;42.040;21.322;2023-12-22T01:57:47;50.33;;;22.15;;
84687;SDS011;74908;42.040;21.322;2023-12-22T02:00:13;42.08;;;20.95;;
84687;SDS011;74908;42.040;21.322;2023-12-22T02:02:40;39.53;;;20.75;;
84687;SDS011;74908;42.040;21.322;2023-12-22T02:05:09;47.53;;;25.85;;
84687;SDS011;74908;42.040;21.322;2023-12-22T02:07:39;43.03;;;21.75;;
84687;SDS011;74908;42.040;21.322;2023-12-22T02:10:07;47.15;;;23.38;;
84687;SDS011;74908;42.040;21.322;2023-12-22T02:12:34;40.38;;;23.20;;
84687;SDS011;74908;42.040;21.322;2023-12-22T02:15:01;42.40;;;21.60;;
84687;SDS011;74908;42.040;21.322;2023-12-22T02:17:39;47.38;;;25.17;;
84687;SDS011;74908;42.040;21.322;2023-12-22T02:20:10;44.42;;;21.30;;
84687;SDS011;74908;42.040;21.322;2023-12-22T02:22:37;41.35;;;20.90;;
84687;SDS011;74908;42.040;21.322;2023-12-22T02:25:03;38.83;;;20.48;;
84687;SDS011;74908;42.040;21.322;2023-12-22T02:27:47;48.15;;;25.08;;
84687;SDS011;74908;42.040;21.322;2023-12-22T02:30:16;42.35;;;23.50;;
84687;SDS011;74908;42.040;21.322;2023-12-22T02:32:47;40.65;;;18.92;;
84687;SDS011;74908;42.040;21.322;2023-12-22T02:35:15;52.28;;;22.80;;
84687;SDS011;74908;42.040;21.322;2023-12-22T02:37:43;44.80;;;22.70;;
84687;SDS011;74908;42.040;21.322;2023-12-22T02:40:11;44.47;;;22.95;;
84687;SDS011;74908;42.040;21.322;2023-12-22T02:42:38;41.25;;;21.95;;
84687;SDS011;74908;42.040;21.322;2023-12-22T02:45:05;48.47;;;22.17;;
84687;SDS011;74908;42.040;21.322;2023-12-22T02:47:31;40.90;;;21.02;;
84687;SDS011;74908;42.040;21.322;2023-12-22T02:49:58;44.33;;;22.55;;
84687;SDS011;74908;42.040;21.322;2023-12-22T02:52:25;39.65;;;20.95;;
84687;SDS011;74908;42.040;21.322;2023-12-22T02:54:51;45.65;;;22.83;;
84687;SDS011;74908;42.040;21.322;2023-12-22T02:57:17;42.28;;;20.65;;
84687;SDS011;74908;42.040;21.322;2023-12-22T02:59:44;44.45;;;23.15;;
84687;SDS011;74908;42.040;21.322;2023-12-22T03:02:10;39.25;;;20.13;;
84687;SDS011;74908;42.040;21.322;2023-12-22T03:04:37;47.03;;;22.65;;
84687;SDS011;74908;42.040;21.322;2023-12-22T03:07:07;45.33;;;23.80;;
84687;SDS011;74908;42.040;21.322;2023-12-22T03:09:33;45.78;;;23.23;;
84687;SDS011;74908;42.040;21.322;2023-12-22T03:12:00;46.10;;;23.38;;
84687;SDS011;74908;42.040;21.322;2023-12-22T03:14:30;45.55;;;23.50;;
84687;SDS011;74908;42.040;21.322;2023-12-22T03:16:59;46.92;;;24.17;;
84687;SDS011;74908;42.040;21.322;2023-12-22T03:19:25;46.25;;;24.95;;
84687;SDS011;74908;42.040;21.322;2023-12-22T03:21:51;44.38;;;25.23;;
84687;SDS011;74908;42.040;21.322;2023-12-22T03:24:17;47.85;;;23.45;;
84687;SDS011;74908;42.040;21.322;2023-12-22T03:26:45;51.78;;;26.77;;
84687;SDS011;74908;42.040;21.322;2023-12-22T03:29:11;43.25;;;22.15;;
84687;SDS011;74908;42.040;21.322;2023-12-22T03:31:37;47.67;;;23.23;;
84687;SDS011;74908;42.040;21.322;2023-12-22T03:34:03;42.63;;;25.02;;
84687;SDS011;74908;42.040;21.322;2023-12-22T03:36:30;50.20;;;26.08;;
84687;SDS011;74908;42.040;21.322;2023-12-22T03:39:04;47.10;;;25.17;;
84687;SDS011;74908;42.040;21.322;2023-12-22T03:41:33;54.20;;;27.23;;
84687;SDS011;74908;42.040;21.322;2023-12-22T03:43:59;56.35;;;29.27;;
84687;SDS011;74908;42.040;21.322;2023-12-22T03:46:25;61.90;;;29.35;;
84687;SDS011;74908;42.040;21.322;2023-12-22T03:48:52;58.20;;;30.10;;
84687;SDS011;74908;42.040;21.322;2023-12-22T03:51:18;53.38;;;27.17;;
84687;SDS011;74908;42.040;21.322;2023-12-22T03:53:44;58.80;;;29.50;;
84687;SDS011;74908;42.040;21.322;2023-12-22T03:56:10;64.05;;;28.67;;
84687;SDS011;74908;42.040;21.322;2023-12-22T03:58:36;57.33;;;30.80;;
84687;SDS011;74908;42.040;21.322;2023-12-22T04:01:03;55.92;;;29.20;;
84687;SDS011;74908;42.040;21.322;2023-12-22T04:03:29;60.00;;;29.05;;
84687;SDS011;74908;42.040;21.322;2023-12-22T04:05:55;69.63;;;28.33;;
84687;SDS011;74908;42.040;21.322;2023-12-22T04:08:22;55.25;;;25.63;;
84687;SDS011;74908;42.040;21.322;2023-12-22T04:10:48;58.92;;;32.53;;
84687;SDS011;74908;42.040;21.322;2023-12-22T04:13:14;59.97;;;29.08;;
84687;SDS011;74908;42.040;21.322;2023-12-22T04:15:40;60.03;;;29.42;;
84687;SDS011;74908;42.040;21.322;2023-12-22T04:18:06;51.15;;;28.88;;
84687;SDS011;74908;42.040;21.322;2023-12-22T04:20:33;53.88;;;28.08;;
84687;SDS011;74908;42.040;21.322;2023-12-22T04:22:59;61.65;;;29.65;;
84687;SDS011;74908;42.040;21.322;2023-12-22T04:25:25;54.45;;;28.52;;
84687;SDS011;74908;42.040;21.322;2023-12-22T04:27:51;57.92;;;27.33;;
84687;SDS011;74908;42.040;21.322;2023-12-22T04:30:17;56.45;;;27.17;;
84687;SDS011;74908;42.040;21.322;2023-12-22T04:32:44;48.78;;;26.52;;
84687;SDS011;74908;42.040;21.322;2023-12-22T04:35:10;48.72;;;24.92;;
84687;SDS011;74908;42.040;21.322;2023-12-22T04:37:36;43.80;;;22.77;;
84687;SDS011;74908;42.040;21.322;2023-12-22T04:40:02;38.47;;;17.02;;
84687;SDS011;74908;42.040;21.322;2023-12-22T04:42:28;35.97;;;16.20;;
84687;SDS011;74908;42.040;21.322;2023-12-22T04:44:55;56.17;;;28.52;;
84687;SDS011;74908;42.040;21.322;2023-12-22T04:47:21;61.80;;;29.05;;
84687;SDS011;74908;42.040;21.322;2023-12-22T04:49:47;53.70;;;27.55;;
84687;SDS011;74908;42.040;21.322;2023-12-22T04:52:14;60.17;;;30.40;;
84687;SDS011;74908;42.040;21.322;2023-12-22T04:54:40;68.25;;;34.88;;
84687;SDS011;74908;42.040;21.322;2023-12-22T04:57:06;60.58;;;34.17;;
84687;SDS011;74908;42.040;21.322;2023-12-22T04:59:32;62.60;;;29.50;;
84687;SDS011;74908;42.040;21.322;2023-12-22T05:01:58;57.35;;;28.00;;
84687;SDS011;74908;42.040;21.322;2023-12-22T05:04:24;57.75;;;29.63;;
84687;SDS011;74908;42.040;21.322;2023-12-22T05:06:51;59.20;;;29.67;;
84687;SDS011;74908;42.040;21.322;2023-12-22T05:09:17;50.15;;;28.08;;
84687;SDS011;74908;42.040;21.322;2023-12-22T05:11:43;53.70;;;28.15;;
84687;SDS011;74908;42.040;21.322;2023-12-22T05:14:09;59.97;;;29.70;;
84687;SDS011;74908;42.040;21.322;2023-12-22T05:16:36;61.53;;;30.85;;
84687;SDS011;74908;42.040;21.322;2023-12-22T05:19:02;56.50;;;28.20;;
84687;SDS011;74908;42.040;21.322;2023-12-22T05:21:28;56.38;;;29.85;;
84687;SDS011;74908;42.040;21.322;2023-12-22T05:23:55;57.22;;;29.10;;
84687;SDS011;74908;42.040;21.322;2023-12-22T05:26:21;67.28;;;32.25;;
84687;SDS011;74908;42.040;21.322;2023-12-22T05:28:48;58.17;;;29.98;;
84687;SDS011;74908;42.040;21.322;2023-12-22T05:31:17;54.08;;;27.48;;
84687;SDS011;74908;42.040;21.322;2023-12-22T05:33:44;58.85;;;27.08;;
84687;SDS011;74908;42.040;21.322;2023-12-22T05:36:10;38.38;;;20.45;;
84687;SDS011;74908;42.040;21.322;2023-12-22T05:38:37;48.38;;;24.77;;
84687;SDS011;74908;42.040;21.322;2023-12-22T05:41:03;54.25;;;23.95;;
84687;SDS011;74908;42.040;21.322;2023-12-22T05:43:31;44.10;;;24.50;;
84687;SDS011;74908;42.040;21.322;2023-12-22T05:45:58;51.13;;;24.95;;
84687;SDS011;74908;42.040;21.322;2023-12-22T05:48:25;53.67;;;26.45;;
84687;SDS011;74908;42.040;21.322;2023-12-22T05:50:53;54.08;;;28.30;;
84687;SDS011;74908;42.040;21.322;2023-12-22T05:53:19;50.55;;;23.65;;
84687;SDS011;74908;42.040;21.322;2023-12-22T05:55:52;50.85;;;25.17;;
84687;SDS011;74908;42.040;21.322;2023-12-22T05:58:20;41.70;;;22.85;;
84687;SDS011;74908;42.040;21.322;2023-12-22T06:00:46;44.65;;;24.65;;
84687;SDS011;74908;42.040;21.322;2023-12-22T06:03:12;51.00;;;25.08;;
84687;SDS011;74908;42.040;21.322;2023-12-22T06:05:39;48.95;;;25.58;;
84687;SDS011;74908;42.040;21.322;2023-12-22T06:08:05;50.10;;;24.67;;
84687;SDS011;74908;42.040;21.322;2023-12-22T06:10:31;51.58;;;25.17;;
84687;SDS011;74908;42.040;21.322;2023-12-22T06:12:57;45.53;;;23.77;;
84687;SDS011;74908;42.040;21.322;2023-12-22T06:15:26;54.58;;;24.65;;
84687;SDS011;74908;42.040;21.322;2023-12-22T06:17:52;44.35;;;24.20;;
84687;SDS011;74908;42.040;21.322;2023-12-22T06:20:18;49.30;;;23.83;;
84687;SDS011;74908;42.040;21.322;2023-12-22T06:22:44;53.50;;;22.88;;
84687;SDS011;74908;42.040;21.322;2023-12-22T06:25:10;49.53;;;26.35;;
84687;SDS011;74908;42.040;21.322;2023-12-22T06:27:36;52.83;;;27.38;;
84687;SDS011;74908;42.040;21.322;2023-12-22T06:30:04;48.30;;;25.83;;
84687;SDS011;74908;42.040;21.322;2023-12-22T06:32:31;51.78;;;27.35;;
84687;SDS011;74908;42.040;21.322;2023-12-22T06:34:58;57.70;;;28.48;;
84687;SDS011;74908;42.040;21.322;2023-12-22T06:37:26;63.80;;;32.05;;
84687;SDS011;74908;42.040;21.322;2023-12-22T06:39:52;59.03;;;30.80;;
84687;SDS011;74908;42.040;21.322;2023-12-22T06:42:18;66.70;;;33.92;;
84687;SDS011;74908;42.040;21.322;2023-12-22T06:44:45;69.03;;;36.30;;
84687;SDS011;74908;42.040;21.322;2023-12-22T06:47:11;65.32;;;32.13;;
84687;SDS011;74908;42.040;21.322;2023-12-22T06:49:38;69.82;;;36.17;;
84687;SDS011;74908;42.040;21.322;2023-12-22T06:52:05;63.22;;;33.08;;
84687;SDS011;74908;42.040;21.322;2023-12-22T06:54:32;64.65;;;32.22;;
84687;SDS011;74908;42.040;21.322;2023-12-22T06:56:59;57.40;;;29.38;;
84687;SDS011;74908;42.040;21.322;2023-12-22T06:59:25;60.65;;;30.10;;
84687;SDS011;74908;42.040;21.322;2023-12-22T07:01:52;59.70;;;28.88;;
84687;SDS011;74908;42.040;21.322;2023-12-22T07:04:20;59.47;;;30.63;;
84687;SDS011;74908;42.040;21.322;2023-12-22T07:06:47;60.28;;;28.55;;
84687;SDS011;74908;42.040;21.322;2023-12-22T07:11:49;56.55;;;26.90;;
84687;SDS011;74908;42.040;21.322;2023-12-22T07:14:16;60.88;;;29.42;;
84687;SDS011;74908;42.040;21.322;2023-12-22T07:16:42;60.58;;;27.77;;
84687;SDS011;74908;42.040;21.322;2023-12-22T07:19:08;54.95;;;27.50;;
84687;SDS011;74908;42.040;21.322;2023-12-22T07:21:38;61.97;;;26.83;;
84687;SDS011;74908;42.040;21.322;2023-12-22T07:24:04;53.42;;;26.17;;
84687;SDS011;74908;42.040;21.322;2023-12-22T07:26:31;60.15;;;27.88;;
84687;SDS011;74908;42.040;21.322;2023-12-22T07:28:57;54.88;;;24.58;;
84687;SDS011;74908;42.040;21.322;2023-12-22T07:31:23;58.72;;;26.50;;
84687;SDS011;74908;42.040;21.322;2023-12-22T07:33:49;53.92;;;25.35;;
84687;SDS011;74908;42.040;21.322;2023-12-22T07:36:16;54.85;;;26.42;;
84687;SDS011;74908;42.040;21.322;2023-12-22T07:38:46;54.35;;;26.05;;
84687;SDS011;74908;42.040;21.322;2023-12-22T07:41:12;46.28;;;24.50;;
84687;SDS011;74908;42.040;21.322;2023-12-22T07:43:38;55.05;;;25.35;;
84687;SDS011;74908;42.040;21.322;2023-12-22T07:46:07;58.78;;;26.30;;
84687;SDS011;74908;42.040;21.322;2023-12-22T07:48:34;51.65;;;24.65;;
84687;SDS011;74908;42.040;21.322;2023-12-22T07:51:00;51.95;;;26.98;;
84687;SDS011;74908;42.040;21.322;2023-12-22T07:53:27;54.80;;;24.20;;
84687;SDS011;74908;42.040;21.322;2023-12-22T07:55:53;48.15;;;25.65;;
84687;SDS011;74908;42.040;21.322;2023-12-22T07:58:19;46.78;;;24.42;;
84687;SDS011;74908;42.040;21.322;2023-12-22T08:00:46;58.05;;;25.60;;
84687;SDS011;74908;42.040;21.322;2023-12-22T08:03:12;52.15;;;25.67;;
84687;SDS011;74908;42.040;21.322;2023-12-22T08:05:38;59.03;;;25.70;;
84687;SDS011;74908;42.040;21.322;2023-12-22T08:08:04;57.17;;;26.30;;
84687;SDS011;74908;42.040;21.322;2023-12-22T08:10:30;54.28;;;27.20;;
84687;SDS011;74908;42.040;21.322;2023-12-22T08:12:57;52.35;;;27.50;;
84687;SDS011;74908;42.040;21.322;2023-12-22T08:15:23;54.33;;;28.23;;
84687;SDS011;74908;42.040;21.322;2023-12-22T08:17:49;55.85;;;24.88;;
84687;SDS011;74908;42.040;21.322;2023-12-22T08:20:20;57.83;;;29.40;;
84687;SDS011;74908;42.040;21.322;2023-12-22T08:22:47;56.00;;;28.05;;
84687;SDS011;74908;42.040;21.322;2023-12-22T08:25:13;54.55;;;26.90;;
84687;SDS011;74908;42.040;21.322;2023-12-22T08:27:39;62.58;;;26.88;;
84687;SDS011;74908;42.040;21.322;2023-12-22T08:30:07;54.70;;;26.17;;
84687;SDS011;74908;42.040;21.322;2023-12-22T08:32:33;52.70;;;26.20;;
84687;SDS011;74908;42.040;21.322;2023-12-22T08:34:59;56.05;;;26.90;;
84687;SDS011;74908;42.040;21.322;2023-12-22T08:37:25;56.28;;;27.45;;
84687;SDS011;74908;42.040;21.322;2023-12-22T08:39:52;60.60;;;28.90;;
84687;SDS011;74908;42.040;21.322;2023-12-22T08:42:18;53.30;;;27.15;;
84687;SDS011;74908;42.040;21.322;2023-12-22T08:44:44;61.03;;;30.75;;
84687;SDS011;74908;42.040;21.322;2023-12-22T08:47:10;60.08;;;29.83;;
84687;SDS011;74908;42.040;21.322;2023-12-22T08:49:37;58.83;;;29.70;;
84687;SDS011;74908;42.040;21.322;2023-12-22T08:52:03;52.78;;;27.58;;
84687;SDS011;74908;42.040;21.322;2023-12-22T08:54:29;60.80;;;28.85;;
84687;SDS011;74908;42.040;21.322;2023-12-22T08:56:56;63.72;;;30.58;;
84687;SDS011;74908;42.040;21.322;2023-12-22T08:59:22;62.35;;;29.83;;
84687;SDS011;74908;42.040;21.322;2023-12-22T09:01:48;57.63;;;27.38;;
84687;SDS011;74908;42.040;21.322;2023-12-22T09:04:14;52.25;;;29.00;;
84687;SDS011;74908;42.040;21.322;2023-12-22T09:06:42;57.53;;;28.38;;
84687;SDS011;74908;42.040;21.322;2023-12-22T09:09:08;57.70;;;29.85;;
84687;SDS011;74908;42.040;21.322;2023-12-22T09:11:34;56.95;;;31.08;;
84687;SDS011;74908;42.040;21.322;2023-12-22T09:14:01;57.28;;;31.10;;
84687;SDS011;74908;42.040;21.322;2023-12-22T09:16:27;61.42;;;30.73;;
84687;SDS011;74908;42.040;21.322;2023-12-22T09:18:53;62.80;;;27.20;;
84687;SDS011;74908;42.040;21.322;2023-12-22T09:21:19;51.72;;;25.90;;
84687;SDS011;74908;42.040;21.322;2023-12-22T09:23:46;52.35;;;22.70;;
84687;SDS011;74908;42.040;21.322;2023-12-22T09:26:12;50.38;;;25.10;;
84687;SDS011;74908;42.040;21.322;2023-12-22T09:28:39;60.63;;;25.65;;
84687;SDS011;74908;42.040;21.322;2023-12-22T09:31:06;55.13;;;27.13;;
84687;SDS011;74908;42.040;21.322;2023-12-22T09:33:33;49.50;;;27.92;;
84687;SDS011;74908;42.040;21.322;2023-12-22T09:35:59;54.25;;;27.27;;
84687;SDS011;74908;42.040;21.322;2023-12-22T09:38:25;47.53;;;22.92;;
84687;SDS011;74908;42.040;21.322;2023-12-22T09:40:53;49.58;;;24.10;;
84687;SDS011;74908;42.040;21.322;2023-12-22T09:43:21;54.47;;;25.77;;
84687;SDS011;74908;42.040;21.322;2023-12-22T09:45:48;56.72;;;27.25;;
84687;SDS011;74908;42.040;21.322;2023-12-22T09:48:15;56.30;;;29.60;;
84687;SDS011;74908;42.040;21.322;2023-12-22T09:50:46;53.03;;;28.70;;
84687;SDS011;74908;42.040;21.322;2023-12-22T09:53:13;65.93;;;32.85;;
84687;SDS011;74908;42.040;21.322;2023-12-22T09:55:42;60.92;;;31.25;;
84687;SDS011;74908;42.040;21.322;2023-12-22T09:58:09;66.00;;;30.70;;
84687;SDS011;74908;42.040;21.322;2023-12-22T10:00:36;66.22;;;34.17;;
84687;SDS011;74908;42.040;21.322;2023-12-22T10:03:06;64.50;;;32.30;;
84687;SDS011;74908;42.040;21.322;2023-12-22T10:05:35;62.33;;;32.42;;
84687;SDS011;74908;42.040;21.322;2023-12-22T10:08:02;58.92;;;32.55;;
84687;SDS011;74908;42.040;21.322;2023-12-22T10:10:29;65.22;;;36.03;;
84687;SDS011;74908;42.040;21.322;2023-12-22T10:12:56;60.13;;;32.22;;
84687;SDS011;74908;42.040;21.322;2023-12-22T10:15:23;59.53;;;33.72;;
84687;SDS011;74908;42.040;21.322;2023-12-22T10:17:50;62.67;;;32.42;;
84687;SDS011;74908;42.040;21.322;2023-12-22T10:20:16;61.00;;;33.50;;
84687;SDS011;74908;42.040;21.322;2023-12-22T10:22:42;60.65;;;33.60;;
84687;SDS011;74908;42.040;21.322;2023-12-22T10:25:08;70.18;;;34.50;;
84687;SDS011;74908;42.040;21.322;2023-12-22T10:27:38;68.65;;;32.58;;
84687;SDS011;74908;42.040;21.322;2023-12-22T10:30:04;65.60;;;33.53;;
84687;SDS011;74908;42.040;21.322;2023-12-22T10:32:30;60.67;;;32.80;;
84687;SDS011;74908;42.040;21.322;2023-12-22T10:34:56;67.43;;;33.28;;
84687;SDS011;74908;42.040;21.322;2023-12-22T10:37:23;63.80;;;34.33;;
84687;SDS011;74908;42.040;21.322;2023-12-22T10:39:52;56.03;;;28.65;;
84687;SDS011;74908;42.040;21.322;2023-12-22T10:42:18;57.00;;;28.70;;
84687;SDS011;74908;42.040;21.322;2023-12-22T10:44:45;63.80;;;29.98;;
84687;SDS011;74908;42.040;21.322;2023-12-22T10:47:11;59.40;;;29.45;;
84687;SDS011;74908;42.040;21.322;2023-12-22T10:49:37;58.65;;;29.67;;
84687;SDS011;74908;42.040;21.322;2023-12-22T10:52:03;61.58;;;30.52;;
84687;SDS011;74908;42.040;21.322;2023-12-22T10:54:30;59.50;;;30.52;;
84687;SDS011;74908;42.040;21.322;2023-12-22T10:56:59;63.53;;;31.58;;
84687;SDS011;74908;42.040;21.322;2023-12-22T10:59:27;65.25;;;31.45;;
84687;SDS011;74908;42.040;21.322;2023-12-22T11:01:56;62.88;;;31.25;;
84687;SDS011;74908;42.040;21.322;2023-12-22T11:04:25;65.80;;;32.85;;
84687;SDS011;74908;42.040;21.322;2023-12-22T11:06:54;68.22;;;32.05;;
84687;SDS011;74908;42.040;21.322;2023-12-22T11:09:23;51.75;;;26.98;;
84687;SDS011;74908;42.040;21.322;2023-12-22T11:11:52;63.13;;;28.13;;
84687;SDS011;74908;42.040;21.322;2023-12-22T11:14:19;56.40;;;29.42;;
84687;SDS011;74908;42.040;21.322;2023-12-22T11:16:45;56.13;;;30.20;;
84687;SDS011;74908;42.040;21.322;2023-12-22T11:19:14;54.72;;;29.85;;
84687;SDS011;74908;42.040;21.322;2023-12-22T11:21:40;61.33;;;30.30;;
84687;SDS011;74908;42.040;21.322;2023-12-22T11:24:07;64.05;;;30.58;;
84687;SDS011;74908;42.040;21.322;2023-12-22T11:26:33;65.55;;;31.33;;
84687;SDS011;74908;42.040;21.322;2023-12-22T11:28:59;58.67;;;29.63;;
84687;SDS011;74908;42.040;21.322;2023-12-22T11:31:26;63.13;;;29.20;;
84687;SDS011;74908;42.040;21.322;2023-12-22T11:33:53;51.75;;;27.08;;
84687;SDS011;74908;42.040;21.322;2023-12-22T11:36:20;45.75;;;19.75;;
84687;SDS011;74908;42.040;21.322;2023-12-22T11:38:47;34.35;;;16.88;;
84687;SDS011;74908;42.040;21.322;2023-12-22T11:41:15;33.13;;;16.90;;
84687;SDS011;74908;42.040;21.322;2023-12-22T11:43:43;29.95;;;14.63;;
84687;SDS011;74908;42.040;21.322;2023-12-22T11:46:10;34.22;;;18.63;;
84687;SDS011;74908;42.040;21.322;2023-12-22T11:48:37;39.38;;;19.83;;
84687;SDS011;74908;42.040;21.322;2023-12-22T11:51:14;44.22;;;19.33;;
84687;SDS011;74908;42.040;21.322;2023-12-22T11:53:41;26.70;;;13.70;;
84687;SDS011;74908;42.040;21.322;2023-12-22T11:56:08;8.05;;;4.75;;
84687;SDS011;74908;42.040;21.322;2023-12-22T12:01:09;0.60;;;0.50;;
84687;SDS011;74908;42.040;21.322;2023-12-22T12:03:36;1.40;;;0.50;;
84687;SDS011;74908;42.040;21.322;2023-12-22T12:06:16;0.22;;;0.20;;
84687;SDS011;74908;42.040;21.322;2023-12-22T12:08:43;0.93;;;0.47;;
84687;SDS011;74908;42.040;21.322;2023-12-22T12:11:09;0.30;;;0.20;;
84687;SDS011;74908;42.040;21.322;2023-12-22T12:13:36;0.15;;;0.10;;
84687;SDS011;74908;42.040;21.322;2023-12-22T12:16:07;0.43;;;0.32;;
84687;SDS011;74908;42.040;21.322;2023-12-22T12:18:33;1.00;;;0.40;;
84687;SDS011;74908;42.040;21.322;2023-12-22T12:21:00;0.65;;;0.60;;
84687;SDS011;74908;42.040;21.322;2023-12-22T12:23:27;1.60;;;0.93;;
84687;SDS011;74908;42.040;21.322;2023-12-22T12:25:53;0.95;;;0.77;;
84687;SDS011;74908;42.040;21.322;2023-12-22T12:28:28;1.95;;;0.57;;
84687;SDS011;74908;42.040;21.322;2023-12-22T12:30:58;0.68;;;0.40;;
84687;SDS011;74908;42.040;21.322;2023-12-22T12:33:27;2.17;;;0.60;;
84687;SDS011;74908;42.040;21.322;2023-12-22T12:35:54;1.25;;;0.80;;
84687;SDS011;74908;42.040;21.322;2023-12-22T12:38:23;1.58;;;0.82;;
84687;SDS011;74908;42.040;21.322;2023-12-22T12:40:50;1.95;;;0.90;;
84687;SDS011;74908;42.040;21.322;2023-12-22T12:43:17;2.20;;;1.00;;
84687;SDS011;74908;42.040;21.322;2023-12-22T12:45:44;1.40;;;0.75;;
84687;SDS011;74908;42.040;21.322;2023-12-22T12:48:10;0.73;;;0.60;;
84687;SDS011;74908;42.040;21.322;2023-12-22T12:50:44;2.67;;;0.75;;
84687;SDS011;74908;42.040;21.322;2023-12-22T12:53:10;7.45;;;3.50;;
84687;SDS011;74908;42.040;21.322;2023-12-22T12:55:37;6.65;;;4.43;;
84687;SDS011;74908;42.040;21.322;2023-12-22T12:58:03;10.25;;;5.00;;
84687;SDS011;74908;42.040;21.322;2023-12-22T13:00:30;7.93;;;5.18;;
84687;SDS011;74908;42.040;21.322;2023-12-22T13:02:59;11.68;;;6.63;;
84687;SDS011;74908;42.040;21.322;2023-12-22T13:05:29;7.10;;;5.15;;
84687;SDS011;74908;42.040;21.322;2023-12-22T13:08:08;9.05;;;4.72;;
84687;SDS011;74908;42.040;21.322;2023-12-22T13:10:35;7.75;;;4.30;;
84687;SDS011;74908;42.040;21.322;2023-12-22T13:13:01;7.10;;;3.85;;
84687;SDS011;74908;42.040;21.322;2023-12-22T13:15:28;7.25;;;3.90;;
84687;SDS011;74908;42.040;21.322;2023-12-22T13:17:54;6.57;;;3.28;;
84687;SDS011;74908;42.040;21.322;2023-12-22T13:20:21;4.65;;;2.50;;
84687;SDS011;74908;42.040;21.322;2023-12-22T13:22:47;2.70;;;1.50;;
84687;SDS011;74908;42.040;21.322;2023-12-22T13:25:13;4.32;;;2.03;;
84687;SDS011;74908;42.040;21.322;2023-12-22T13:27:45;3.05;;;1.65;;
84687;SDS011;74908;42.040;21.322;2023-12-22T13:30:12;1.92;;;1.10;;
84687;SDS011;74908;42.040;21.322;2023-12-22T13:32:38;2.03;;;1.10;;
84687;SDS011;74908;42.040;21.322;2023-12-22T13:35:05;2.42;;;1.75;;
84687;SDS011;74908;42.040;21.322;2023-12-22T13:37:31;1.80;;;1.27;;
84687;SDS011;74908;42.040;21.322;2023-12-22T13:39:57;2.25;;;1.02;;
84687;SDS011;74908;42.040;21.322;2023-12-22T13:42:23;2.00;;;1.08;;
84687;SDS011;74908;42.040;21.322;2023-12-22T13:44:50;1.23;;;0.90;;
84687;SDS011;74908;42.040;21.322;2023-12-22T13:47:20;2.50;;;1.45;;
84687;SDS011;74908;42.040;21.322;2023-12-22T13:49:48;2.50;;;1.02;;
84687;SDS011;74908;42.040;21.322;2023-12-22T13:52:32;2.25;;;0.90;;
84687;SDS011;74908;42.040;21.322;2023-12-22T13:55:01;1.25;;;0.80;;
84687;SDS011;74908;42.040;21.322;2023-12-22T13:57:28;1.15;;;0.80;;
84687;SDS011;74908;42.040;21.322;2023-12-22T13:59:54;1.52;;;0.60;;
84687;SDS011;74908;42.040;21.322;2023-12-22T14:02:21;2.38;;;0.70;;
84687;SDS011;74908;42.040;21.322;2023-12-22T14:04:48;0.95;;;0.50;;
84687;SDS011;74908;42.040;21.322;2023-12-22T14:07:15;1.42;;;1.00;;
84687;SDS011;74908;42.040;21.322;2023-12-22T14:09:41;1.13;;;0.60;;
84687;SDS011;74908;42.040;21.322;2023-12-22T14:12:07;1.38;;;0.80;;
84687;SDS011;74908;42.040;21.322;2023-12-22T14:14:33;1.27;;;0.55;;
84687;SDS011;74908;42.040;21.322;2023-12-22T14:16:59;1.48;;;0.80;;
84687;SDS011;74908;42.040;21.322;2023-12-22T14:19:25;3.83;;;1.10;;